sensor_id;sensor_type;location;lat;lon;timestamp;temperature;humidity
13433;DHT22;6789;47.678;9.158;2022-08-01T00:00:52;21.20;99.90
13433;DHT22;6789;47.678;9.158;2022-08-01T00:05:44;21.30;99.90
13433;DHT22;6789;47.678;9.158;2022-08-01T00:10:50;21.20;99.90
13433;DHT22;6789;47.678;9.158;2022-08-01T00:15:56;21.10;99.90
13433;DHT22;6789;47.678;9.158;2022-08-01T00:20:48;21.10;99.90
13433;DHT22;6789;47.678;9.158;2022-08-01T00:25:40;21.10;99.90
13433;DHT22;6789;47.678;9.158;2022-08-01T00:30:46;21.30;99.90
13433;DHT22;6789;47.678;9.158;2022-08-01T00:35:52;21.50;99.90
13433;DHT22;6789;47.678;9.158;2022-08-01T00:40:44;21.50;99.90
13433;DHT22;6789;47.678;9.158;2022-08-01T00:45:50;21.40;99.90
13433;DHT22;6789;47.678;9.158;2022-08-01T00:50:42;21.40;99.90
13433;DHT22;6789;47.678;9.158;2022-08-01T00:55:34;21.30;99.90
13433;DHT22;6789;47.678;9.158;2022-08-01T01:00:40;21.20;99.90
13433;DHT22;6789;47.678;9.158;2022-08-01T01:06:05;21.20;99.90
13433;DHT22;6789;47.678;9.158;2022-08-01T01:11:25;21.20;99.90
13433;DHT22;6789;47.678;9.158;2022-08-01T01:16:21;21.20;99.90
13433;DHT22;6789;47.678;9.158;2022-08-01T01:31:59;21.30;99.90
13433;DHT22;6789;47.678;9.158;2022-08-01T01:37:16;21.20;99.90
13433;DHT22;6789;47.678;9.158;2022-08-01T01:42:10;21.20;99.90
13433;DHT22;6789;47.678;9.158;2022-08-01T01:47:04;21.20;99.90
13433;DHT22;6789;47.678;9.158;2022-08-01T01:51:59;21.20;99.90
13433;DHT22;6789;47.678;9.158;2022-08-01T01:56:56;21.00;99.90
13433;DHT22;6789;47.678;9.158;2022-08-01T02:01:52;21.00;99.90
13433;DHT22;6789;47.678;9.158;2022-08-01T02:07:00;21.10;99.90
13433;DHT22;6789;47.678;9.158;2022-08-01T02:11:53;21.40;99.90
13433;DHT22;6789;47.678;9.158;2022-08-01T02:16:59;21.50;99.90
13433;DHT22;6789;47.678;9.158;2022-08-01T02:22:05;21.40;99.90
13433;DHT22;6789;47.678;9.158;2022-08-01T02:27:34;21.40;99.90
13433;DHT22;6789;47.678;9.158;2022-08-01T02:32:51;21.40;99.90
13433;DHT22;6789;47.678;9.158;2022-08-01T02:37:48;21.20;99.90
13433;DHT22;6789;47.678;9.158;2022-08-01T02:42:47;20.90;99.90
13433;DHT22;6789;47.678;9.158;2022-08-01T02:48:00;20.70;99.90
13433;DHT22;6789;47.678;9.158;2022-08-01T02:53:12;20.60;99.90
13433;DHT22;6789;47.678;9.158;2022-08-01T02:58:07;20.50;99.90
13433;DHT22;6789;47.678;9.158;2022-08-01T03:03:05;20.60;99.90
13433;DHT22;6789;47.678;9.158;2022-08-01T03:08:15;20.40;99.90
13433;DHT22;6789;47.678;9.158;2022-08-01T03:13:09;20.40;99.90
13433;DHT22;6789;47.678;9.158;2022-08-01T03:18:18;20.40;99.90
13433;DHT22;6789;47.678;9.158;2022-08-01T03:23:27;20.40;99.90
13433;DHT22;6789;47.678;9.158;2022-08-01T03:28:38;20.40;99.90
13433;DHT22;6789;47.678;9.158;2022-08-01T03:33:33;20.50;99.90
13433;DHT22;6789;47.678;9.158;2022-08-01T03:38:40;20.50;99.90
13433;DHT22;6789;47.678;9.158;2022-08-01T03:43:46;20.50;99.90
13433;DHT22;6789;47.678;9.158;2022-08-01T03:48:47;20.40;99.90
13433;DHT22;6789;47.678;9.158;2022-08-01T03:53:42;20.10;99.90
13433;DHT22;6789;47.678;9.158;2022-08-01T03:58:41;19.80;99.90
13433;DHT22;6789;47.678;9.158;2022-08-01T04:03:41;19.60;99.90
13433;DHT22;6789;47.678;9.158;2022-08-01T04:08:39;19.50;99.90
13433;DHT22;6789;47.678;9.158;2022-08-01T04:13:45;19.70;99.90
13433;DHT22;6789;47.678;9.158;2022-08-01T04:18:51;19.70;99.90
13433;DHT22;6789;47.678;9.158;2022-08-01T04:24:01;20.10;99.90
13433;DHT22;6789;47.678;9.158;2022-08-01T04:29:11;20.30;99.90
13433;DHT22;6789;47.678;9.158;2022-08-01T04:34:21;20.60;99.90
13433;DHT22;6789;47.678;9.158;2022-08-01T04:39:33;20.90;99.90
13433;DHT22;6789;47.678;9.158;2022-08-01T04:44:42;20.90;99.90
13433;DHT22;6789;47.678;9.158;2022-08-01T04:49:48;20.70;99.90
13433;DHT22;6789;47.678;9.158;2022-08-01T04:54:50;20.90;99.90
13433;DHT22;6789;47.678;9.158;2022-08-01T04:59:57;21.30;99.90
13433;DHT22;6789;47.678;9.158;2022-08-01T05:05:04;21.50;99.90
13433;DHT22;6789;47.678;9.158;2022-08-01T05:10:13;21.80;99.90
13433;DHT22;6789;47.678;9.158;2022-08-01T05:15:19;23.40;99.90
13433;DHT22;6789;47.678;9.158;2022-08-01T05:20:25;24.90;99.90
13433;DHT22;6789;47.678;9.158;2022-08-01T05:25:33;24.70;99.90
13433;DHT22;6789;47.678;9.158;2022-08-01T05:30:39;24.60;99.90
13433;DHT22;6789;47.678;9.158;2022-08-01T05:35:45;24.10;99.90
13433;DHT22;6789;47.678;9.158;2022-08-01T05:40:52;23.70;99.90
13433;DHT22;6789;47.678;9.158;2022-08-01T05:45:58;23.80;99.90
13433;DHT22;6789;47.678;9.158;2022-08-01T05:51:04;24.30;99.90
13433;DHT22;6789;47.678;9.158;2022-08-01T05:56:14;24.80;99.90
13433;DHT22;6789;47.678;9.158;2022-08-01T06:01:28;26.70;99.90
13433;DHT22;6789;47.678;9.158;2022-08-01T06:07:00;27.90;99.90
13433;DHT22;6789;47.678;9.158;2022-08-01T06:12:35;28.20;99.90
13433;DHT22;6789;47.678;9.158;2022-08-01T06:17:49;28.00;99.90
13433;DHT22;6789;47.678;9.158;2022-08-01T06:22:59;28.70;99.90
13433;DHT22;6789;47.678;9.158;2022-08-01T06:28:05;28.40;99.90
13433;DHT22;6789;47.678;9.158;2022-08-01T06:33:11;29.00;99.90
13433;DHT22;6789;47.678;9.158;2022-08-01T06:38:11;29.60;99.90
13433;DHT22;6789;47.678;9.158;2022-08-01T06:43:17;29.10;99.90
13433;DHT22;6789;47.678;9.158;2022-08-01T06:48:24;28.80;99.90
13433;DHT22;6789;47.678;9.158;2022-08-01T06:53:24;28.80;99.90
13433;DHT22;6789;47.678;9.158;2022-08-01T06:58:30;29.20;99.90
13433;DHT22;6789;47.678;9.158;2022-08-01T07:03:37;29.30;99.90
13433;DHT22;6789;47.678;9.158;2022-08-01T07:08:45;29.20;99.90
13433;DHT22;6789;47.678;9.158;2022-08-01T07:14:00;29.30;99.90
13433;DHT22;6789;47.678;9.158;2022-08-01T07:19:06;29.00;99.90
13433;DHT22;6789;47.678;9.158;2022-08-01T07:24:14;27.80;99.90
13433;DHT22;6789;47.678;9.158;2022-08-01T07:29:41;27.50;99.90
13433;DHT22;6789;47.678;9.158;2022-08-01T07:34:49;27.30;99.90
13433;DHT22;6789;47.678;9.158;2022-08-01T07:40:21;27.40;99.90
13433;DHT22;6789;47.678;9.158;2022-08-01T07:45:28;27.00;99.90
13433;DHT22;6789;47.678;9.158;2022-08-01T07:50:37;27.20;99.90
13433;DHT22;6789;47.678;9.158;2022-08-01T07:55:44;27.50;99.90
13433;DHT22;6789;47.678;9.158;2022-08-01T08:00:50;26.90;99.90
13433;DHT22;6789;47.678;9.158;2022-08-01T08:05:57;27.10;99.90
13433;DHT22;6789;47.678;9.158;2022-08-01T08:11:24;27.20;99.90
13433;DHT22;6789;47.678;9.158;2022-08-01T08:16:24;27.60;99.90
13433;DHT22;6789;47.678;9.158;2022-08-01T08:21:30;28.10;99.90
13433;DHT22;6789;47.678;9.158;2022-08-01T08:26:37;28.20;99.90
13433;DHT22;6789;47.678;9.158;2022-08-01T08:31:43;28.30;99.90
13433;DHT22;6789;47.678;9.158;2022-08-01T08:36:50;28.50;99.90
13433;DHT22;6789;47.678;9.158;2022-08-01T08:42:07;28.80;99.90
13433;DHT22;6789;47.678;9.158;2022-08-01T08:47:16;28.90;99.90
13433;DHT22;6789;47.678;9.158;2022-08-01T08:52:44;28.20;99.90
13433;DHT22;6789;47.678;9.158;2022-08-01T08:57:54;27.70;99.90
13433;DHT22;6789;47.678;9.158;2022-08-01T09:03:53;27.60;99.90
13433;DHT22;6789;47.678;9.158;2022-08-01T09:09:03;27.70;99.90
13433;DHT22;6789;47.678;9.158;2022-08-01T09:14:32;28.00;99.90
13433;DHT22;6789;47.678;9.158;2022-08-01T09:20:31;28.50;99.90
13433;DHT22;6789;47.678;9.158;2022-08-01T09:25:56;28.70;99.90
13433;DHT22;6789;47.678;9.158;2022-08-01T09:37:13;29.00;99.90
13433;DHT22;6789;47.678;9.158;2022-08-01T09:42:27;28.60;99.90
13433;DHT22;6789;47.678;9.158;2022-08-01T09:47:39;28.30;99.90
13433;DHT22;6789;47.678;9.158;2022-08-01T09:52:53;28.40;99.90
13433;DHT22;6789;47.678;9.158;2022-08-01T09:58:13;28.50;99.90
13433;DHT22;6789;47.678;9.158;2022-08-01T10:03:24;28.00;99.90
13433;DHT22;6789;47.678;9.158;2022-08-01T10:08:46;28.40;99.90
13433;DHT22;6789;47.678;9.158;2022-08-01T10:14:08;29.10;99.90
13433;DHT22;6789;47.678;9.158;2022-08-01T10:19:43;29.50;99.90
13433;DHT22;6789;47.678;9.158;2022-08-01T10:25:09;29.60;99.90
13433;DHT22;6789;47.678;9.158;2022-08-01T10:30:20;30.00;99.90
13433;DHT22;6789;47.678;9.158;2022-08-01T10:35:57;30.00;99.90
13433;DHT22;6789;47.678;9.158;2022-08-01T10:41:29;30.30;99.90
13433;DHT22;6789;47.678;9.158;2022-08-01T10:52:39;30.00;99.90
13433;DHT22;6789;47.678;9.158;2022-08-01T11:05:02;29.70;99.80
13433;DHT22;6789;47.678;9.158;2022-08-01T11:10:41;29.60;99.90
13433;DHT22;6789;47.678;9.158;2022-08-01T11:16:25;29.40;99.90
13433;DHT22;6789;47.678;9.158;2022-08-01T11:27:24;30.20;99.90
13433;DHT22;6789;47.678;9.158;2022-08-01T11:44:33;30.40;99.90
13433;DHT22;6789;47.678;9.158;2022-08-01T11:49:57;29.90;99.90
13433;DHT22;6789;47.678;9.158;2022-08-01T11:55:07;30.30;99.90
13433;DHT22;6789;47.678;9.158;2022-08-01T12:00:28;30.30;99.90
13433;DHT22;6789;47.678;9.158;2022-08-01T12:11:56;30.30;99.90
13433;DHT22;6789;47.678;9.158;2022-08-01T12:29:32;30.30;99.90
13433;DHT22;6789;47.678;9.158;2022-08-01T12:34:58;30.60;99.50
13433;DHT22;6789;47.678;9.158;2022-08-01T12:40:46;30.90;99.70
13433;DHT22;6789;47.678;9.158;2022-08-01T12:56:42;30.80;98.10
13433;DHT22;6789;47.678;9.158;2022-08-01T13:02:09;30.70;99.30
13433;DHT22;6789;47.678;9.158;2022-08-01T13:07:38;31.20;94.50
13433;DHT22;6789;47.678;9.158;2022-08-01T13:12:58;31.50;94.70
13433;DHT22;6789;47.678;9.158;2022-08-01T13:18:51;31.50;96.30
13433;DHT22;6789;47.678;9.158;2022-08-01T13:24:05;31.50;94.70
13433;DHT22;6789;47.678;9.158;2022-08-01T13:29:17;31.50;96.60
13433;DHT22;6789;47.678;9.158;2022-08-01T13:34:30;31.30;96.90
13433;DHT22;6789;47.678;9.158;2022-08-01T13:39:52;31.40;96.50
13433;DHT22;6789;47.678;9.158;2022-08-01T13:44:57;31.40;95.10
13433;DHT22;6789;47.678;9.158;2022-08-01T13:50:03;31.20;99.30
13433;DHT22;6789;47.678;9.158;2022-08-01T13:55:13;30.60;96.90
13433;DHT22;6789;47.678;9.158;2022-08-01T14:00:20;30.80;95.60
13433;DHT22;6789;47.678;9.158;2022-08-01T14:05:36;31.10;99.90
13433;DHT22;6789;47.678;9.158;2022-08-01T14:10:43;30.90;99.90
13433;DHT22;6789;47.678;9.158;2022-08-01T14:15:49;29.90;99.90
13433;DHT22;6789;47.678;9.158;2022-08-01T14:26:12;29.60;99.60
13433;DHT22;6789;47.678;9.158;2022-08-01T14:32:26;29.80;99.90
13433;DHT22;6789;47.678;9.158;2022-08-01T14:38:10;29.20;99.90
13433;DHT22;6789;47.678;9.158;2022-08-01T14:43:32;29.20;99.90
13433;DHT22;6789;47.678;9.158;2022-08-01T14:49:11;29.60;99.90
13433;DHT22;6789;47.678;9.158;2022-08-01T14:54:19;30.00;99.90
13433;DHT22;6789;47.678;9.158;2022-08-01T14:59:27;30.00;99.90
13433;DHT22;6789;47.678;9.158;2022-08-01T15:05:00;29.80;99.90
13433;DHT22;6789;47.678;9.158;2022-08-01T15:10:07;30.10;99.10
13433;DHT22;6789;47.678;9.158;2022-08-01T15:15:48;30.00;97.40
13433;DHT22;6789;47.678;9.158;2022-08-01T15:20:50;30.50;98.40
13433;DHT22;6789;47.678;9.158;2022-08-01T15:25:57;30.70;97.10
13433;DHT22;6789;47.678;9.158;2022-08-01T15:31:05;31.00;94.80
13433;DHT22;6789;47.678;9.158;2022-08-01T15:36:13;31.10;91.80
13433;DHT22;6789;47.678;9.158;2022-08-01T15:41:18;31.20;87.00
13433;DHT22;6789;47.678;9.158;2022-08-01T15:46:24;31.20;92.30
13433;DHT22;6789;47.678;9.158;2022-08-01T15:51:32;30.70;97.70
13433;DHT22;6789;47.678;9.158;2022-08-01T15:56:38;30.50;93.80
13433;DHT22;6789;47.678;9.158;2022-08-01T16:01:46;30.60;95.40
13433;DHT22;6789;47.678;9.158;2022-08-01T16:06:55;30.40;97.40
13433;DHT22;6789;47.678;9.158;2022-08-01T16:12:04;30.20;98.00
13433;DHT22;6789;47.678;9.158;2022-08-01T16:17:13;30.60;96.70
13433;DHT22;6789;47.678;9.158;2022-08-01T16:22:19;30.30;94.90
13433;DHT22;6789;47.678;9.158;2022-08-01T16:27:25;30.10;95.50
13433;DHT22;6789;47.678;9.158;2022-08-01T16:32:38;29.90;96.80
13433;DHT22;6789;47.678;9.158;2022-08-01T16:37:44;29.70;96.00
13433;DHT22;6789;47.678;9.158;2022-08-01T16:42:53;29.50;97.90
13433;DHT22;6789;47.678;9.158;2022-08-01T16:47:59;29.10;97.80
13433;DHT22;6789;47.678;9.158;2022-08-01T16:53:05;28.40;99.90
13433;DHT22;6789;47.678;9.158;2022-08-01T16:58:13;28.00;99.90
13433;DHT22;6789;47.678;9.158;2022-08-01T17:03:27;27.70;99.90
13433;DHT22;6789;47.678;9.158;2022-08-01T17:08:33;27.70;99.90
13433;DHT22;6789;47.678;9.158;2022-08-01T17:13:39;27.40;99.90
13433;DHT22;6789;47.678;9.158;2022-08-01T17:18:45;27.40;99.90
13433;DHT22;6789;47.678;9.158;2022-08-01T17:23:52;27.30;99.90
13433;DHT22;6789;47.678;9.158;2022-08-01T17:28:58;27.20;99.90
13433;DHT22;6789;47.678;9.158;2022-08-01T17:34:08;27.20;99.90
13433;DHT22;6789;47.678;9.158;2022-08-01T17:39:02;27.20;99.90
13433;DHT22;6789;47.678;9.158;2022-08-01T17:44:02;27.10;99.90
13433;DHT22;6789;47.678;9.158;2022-08-01T17:49:10;26.90;99.90
13433;DHT22;6789;47.678;9.158;2022-08-01T17:54:16;26.70;99.90
13433;DHT22;6789;47.678;9.158;2022-08-01T17:59:33;26.50;99.90
13433;DHT22;6789;47.678;9.158;2022-08-01T18:04:39;26.30;99.90
13433;DHT22;6789;47.678;9.158;2022-08-01T18:09:48;26.10;99.90
13433;DHT22;6789;47.678;9.158;2022-08-01T18:14:58;25.80;99.90
13433;DHT22;6789;47.678;9.158;2022-08-01T18:20:11;25.70;99.90
13433;DHT22;6789;47.678;9.158;2022-08-01T18:25:23;25.70;99.90
13433;DHT22;6789;47.678;9.158;2022-08-01T18:30:32;25.60;99.90
13433;DHT22;6789;47.678;9.158;2022-08-01T18:35:39;25.50;99.90
13433;DHT22;6789;47.678;9.158;2022-08-01T18:40:45;25.40;99.90
13433;DHT22;6789;47.678;9.158;2022-08-01T18:45:51;25.50;99.90
13433;DHT22;6789;47.678;9.158;2022-08-01T18:50:57;25.60;99.90
13433;DHT22;6789;47.678;9.158;2022-08-01T18:56:05;25.40;99.90
13433;DHT22;6789;47.678;9.158;2022-08-01T19:01:16;25.30;99.90
13433;DHT22;6789;47.678;9.158;2022-08-01T19:06:23;25.40;99.90
13433;DHT22;6789;47.678;9.158;2022-08-01T19:11:57;25.20;99.90
13433;DHT22;6789;47.678;9.158;2022-08-01T19:17:05;25.20;99.90
13433;DHT22;6789;47.678;9.158;2022-08-01T19:22:11;25.00;99.90
13433;DHT22;6789;47.678;9.158;2022-08-01T19:27:09;25.10;99.90
13433;DHT22;6789;47.678;9.158;2022-08-01T19:32:20;25.00;99.90
13433;DHT22;6789;47.678;9.158;2022-08-01T19:37:30;25.00;99.90
13433;DHT22;6789;47.678;9.158;2022-08-01T19:42:40;24.80;99.90
13433;DHT22;6789;47.678;9.158;2022-08-01T19:47:36;24.70;99.90
13433;DHT22;6789;47.678;9.158;2022-08-01T19:52:43;24.30;99.90
13433;DHT22;6789;47.678;9.158;2022-08-01T19:57:52;24.10;99.90
13433;DHT22;6789;47.678;9.158;2022-08-01T20:02:58;24.00;99.90
13433;DHT22;6789;47.678;9.158;2022-08-01T20:08:11;23.60;99.90
13433;DHT22;6789;47.678;9.158;2022-08-01T20:13:11;23.20;99.90
13433;DHT22;6789;47.678;9.158;2022-08-01T20:18:06;23.10;99.90
13433;DHT22;6789;47.678;9.158;2022-08-01T20:23:15;22.90;99.90
13433;DHT22;6789;47.678;9.158;2022-08-01T20:28:24;23.00;99.90
13433;DHT22;6789;47.678;9.158;2022-08-01T20:33:34;23.10;99.90
13433;DHT22;6789;47.678;9.158;2022-08-01T20:38:41;23.10;99.90
13433;DHT22;6789;47.678;9.158;2022-08-01T20:43:54;23.00;99.90
13433;DHT22;6789;47.678;9.158;2022-08-01T20:49:02;22.80;99.90
13433;DHT22;6789;47.678;9.158;2022-08-01T20:54:27;22.70;99.90
13433;DHT22;6789;47.678;9.158;2022-08-01T20:59:53;22.80;99.90
13433;DHT22;6789;47.678;9.158;2022-08-01T21:05:34;22.80;99.90
13433;DHT22;6789;47.678;9.158;2022-08-01T21:10:44;22.50;99.90
13433;DHT22;6789;47.678;9.158;2022-08-01T21:15:57;21.90;99.90
13433;DHT22;6789;47.678;9.158;2022-08-01T21:21:17;21.50;99.90
13433;DHT22;6789;47.678;9.158;2022-08-01T21:26:13;21.10;99.90
13433;DHT22;6789;47.678;9.158;2022-08-01T21:31:05;21.20;99.90
13433;DHT22;6789;47.678;9.158;2022-08-01T21:36:02;21.00;99.90
13433;DHT22;6789;47.678;9.158;2022-08-01T21:41:01;21.10;99.90
13433;DHT22;6789;47.678;9.158;2022-08-01T21:45:59;20.90;99.90
13433;DHT22;6789;47.678;9.158;2022-08-01T21:50:58;20.80;99.90
13433;DHT22;6789;47.678;9.158;2022-08-01T22:01:09;20.80;99.90
13433;DHT22;6789;47.678;9.158;2022-08-01T22:06:23;20.90;99.90
13433;DHT22;6789;47.678;9.158;2022-08-01T22:11:21;20.90;99.90
13433;DHT22;6789;47.678;9.158;2022-08-01T22:16:21;20.90;99.90
13433;DHT22;6789;47.678;9.158;2022-08-01T22:21:19;21.00;99.90
13433;DHT22;6789;47.678;9.158;2022-08-01T22:26:26;21.00;99.90
13433;DHT22;6789;47.678;9.158;2022-08-01T22:31:21;21.10;99.90
13433;DHT22;6789;47.678;9.158;2022-08-01T22:36:30;21.50;99.90
13433;DHT22;6789;47.678;9.158;2022-08-01T22:41:33;21.80;99.90
13433;DHT22;6789;47.678;9.158;2022-08-01T22:46:47;21.80;99.90
13433;DHT22;6789;47.678;9.158;2022-08-01T22:52:17;21.30;99.90
13433;DHT22;6789;47.678;9.158;2022-08-01T22:57:28;21.30;99.90
13433;DHT22;6789;47.678;9.158;2022-08-01T23:02:22;21.00;99.90
13433;DHT22;6789;47.678;9.158;2022-08-01T23:07:21;20.70;99.90
13433;DHT22;6789;47.678;9.158;2022-08-01T23:12:26;20.60;99.90
13433;DHT22;6789;47.678;9.158;2022-08-01T23:17:18;20.50;99.90
13433;DHT22;6789;47.678;9.158;2022-08-01T23:22:19;20.20;99.90
13433;DHT22;6789;47.678;9.158;2022-08-01T23:27:27;20.30;99.90
13433;DHT22;6789;47.678;9.158;2022-08-01T23:32:33;20.20;99.90
13433;DHT22;6789;47.678;9.158;2022-08-01T23:37:39;20.20;99.90
13433;DHT22;6789;47.678;9.158;2022-08-01T23:42:38;20.30;99.90
13433;DHT22;6789;47.678;9.158;2022-08-01T23:47:44;20.30;99.90
13433;DHT22;6789;47.678;9.158;2022-08-01T23:52:36;20.30;99.90
13433;DHT22;6789;47.678;9.158;2022-08-01T23:57:42;20.20;99.90
